sensor_id;sensor_type;location;lat;lon;timestamp;P1;durP1;ratioP1;P2;durP2;ratioP2
63110;SDS011;49201;53.426;10.300;2023-03-16T00:00:44;7.13;;;3.30;;
63110;SDS011;49201;53.426;10.300;2023-03-16T00:03:10;6.23;;;3.20;;
63110;SDS011;49201;53.426;10.300;2023-03-16T00:05:36;11.07;;;3.40;;
63110;SDS011;49201;53.426;10.300;2023-03-16T00:08:02;9.33;;;3.13;;
63110;SDS011;49201;53.426;10.300;2023-03-16T00:10:28;5.67;;;3.20;;
63110;SDS011;49201;53.426;10.300;2023-03-16T00:12:53;5.70;;;3.10;;
63110;SDS011;49201;53.426;10.300;2023-03-16T00:15:19;7.70;;;3.50;;
63110;SDS011;49201;53.426;10.300;2023-03-16T00:17:45;9.00;;;3.30;;
63110;SDS011;49201;53.426;10.300;2023-03-16T00:20:17;8.73;;;3.40;;
63110;SDS011;49201;53.426;10.300;2023-03-16T00:22:43;8.23;;;3.90;;
63110;SDS011;49201;53.426;10.300;2023-03-16T00:25:09;7.10;;;3.70;;
63110;SDS011;49201;53.426;10.300;2023-03-16T00:27:36;8.50;;;3.20;;
63110;SDS011;49201;53.426;10.300;2023-03-16T00:30:03;10.50;;;3.43;;
63110;SDS011;49201;53.426;10.300;2023-03-16T00:32:31;7.07;;;3.33;;
63110;SDS011;49201;53.426;10.300;2023-03-16T00:34:58;9.70;;;3.57;;
63110;SDS011;49201;53.426;10.300;2023-03-16T00:37:26;7.33;;;3.90;;
63110;SDS011;49201;53.426;10.300;2023-03-16T00:39:52;9.00;;;3.30;;
63110;SDS011;49201;53.426;10.300;2023-03-16T00:42:20;4.87;;;3.13;;
63110;SDS011;49201;53.426;10.300;2023-03-16T00:44:48;7.73;;;4.10;;
63110;SDS011;49201;53.426;10.300;2023-03-16T00:47:13;6.90;;;3.00;;
63110;SDS011;49201;53.426;10.300;2023-03-16T00:49:39;6.67;;;3.50;;
63110;SDS011;49201;53.426;10.300;2023-03-16T00:52:07;8.83;;;3.60;;
63110;SDS011;49201;53.426;10.300;2023-03-16T00:54:33;6.27;;;3.20;;
63110;SDS011;49201;53.426;10.300;2023-03-16T00:56:59;9.00;;;3.27;;
63110;SDS011;49201;53.426;10.300;2023-03-16T00:59:26;7.73;;;3.57;;
63110;SDS011;49201;53.426;10.300;2023-03-16T01:01:53;9.33;;;3.50;;
63110;SDS011;49201;53.426;10.300;2023-03-16T01:04:19;10.93;;;4.00;;
63110;SDS011;49201;53.426;10.300;2023-03-16T01:06:46;7.57;;;3.13;;
63110;SDS011;49201;53.426;10.300;2023-03-16T01:09:11;6.57;;;3.50;;
63110;SDS011;49201;53.426;10.300;2023-03-16T01:11:39;14.70;;;3.73;;
63110;SDS011;49201;53.426;10.300;2023-03-16T01:14:04;7.60;;;3.70;;
63110;SDS011;49201;53.426;10.300;2023-03-16T01:16:30;7.80;;;3.63;;
63110;SDS011;49201;53.426;10.300;2023-03-16T01:18:57;11.50;;;3.83;;
63110;SDS011;49201;53.426;10.300;2023-03-16T01:21:23;7.00;;;3.47;;
63110;SDS011;49201;53.426;10.300;2023-03-16T01:23:49;13.60;;;3.80;;
63110;SDS011;49201;53.426;10.300;2023-03-16T01:26:14;5.70;;;3.43;;
63110;SDS011;49201;53.426;10.300;2023-03-16T01:28:42;8.83;;;3.73;;
63110;SDS011;49201;53.426;10.300;2023-03-16T01:31:09;9.60;;;3.90;;
63110;SDS011;49201;53.426;10.300;2023-03-16T01:33:36;7.07;;;3.80;;
63110;SDS011;49201;53.426;10.300;2023-03-16T01:36:06;6.33;;;3.77;;
63110;SDS011;49201;53.426;10.300;2023-03-16T01:38:46;8.63;;;3.60;;
63110;SDS011;49201;53.426;10.300;2023-03-16T01:41:12;7.17;;;3.10;;
63110;SDS011;49201;53.426;10.300;2023-03-16T01:43:38;6.47;;;3.13;;
63110;SDS011;49201;53.426;10.300;2023-03-16T01:51:22;7.80;;;4.10;;
63110;SDS011;49201;53.426;10.300;2023-03-16T01:53:52;8.63;;;4.10;;
63110;SDS011;49201;53.426;10.300;2023-03-16T01:56:28;7.63;;;3.33;;
63110;SDS011;49201;53.426;10.300;2023-03-16T01:59:00;10.00;;;3.10;;
63110;SDS011;49201;53.426;10.300;2023-03-16T02:01:30;8.57;;;3.70;;
63110;SDS011;49201;53.426;10.300;2023-03-16T02:04:01;8.57;;;3.40;;
63110;SDS011;49201;53.426;10.300;2023-03-16T02:06:34;6.00;;;3.60;;
63110;SDS011;49201;53.426;10.300;2023-03-16T02:09:01;8.27;;;3.13;;
63110;SDS011;49201;53.426;10.300;2023-03-16T02:11:27;6.63;;;3.33;;
63110;SDS011;49201;53.426;10.300;2023-03-16T02:14:10;6.47;;;3.17;;
63110;SDS011;49201;53.426;10.300;2023-03-16T02:16:37;11.33;;;4.03;;
63110;SDS011;49201;53.426;10.300;2023-03-16T02:19:05;8.77;;;3.37;;
63110;SDS011;49201;53.426;10.300;2023-03-16T02:24:11;10.10;;;3.43;;
63110;SDS011;49201;53.426;10.300;2023-03-16T02:26:45;8.60;;;4.23;;
63110;SDS011;49201;53.426;10.300;2023-03-16T02:32:07;5.87;;;3.37;;
63110;SDS011;49201;53.426;10.300;2023-03-16T02:34:34;7.53;;;3.53;;
63110;SDS011;49201;53.426;10.300;2023-03-16T02:37:00;11.50;;;4.03;;
63110;SDS011;49201;53.426;10.300;2023-03-16T02:39:28;6.40;;;3.93;;
63110;SDS011;49201;53.426;10.300;2023-03-16T02:41:53;10.50;;;3.63;;
63110;SDS011;49201;53.426;10.300;2023-03-16T02:44:20;4.70;;;3.23;;
63110;SDS011;49201;53.426;10.300;2023-03-16T02:46:51;7.73;;;4.00;;
63110;SDS011;49201;53.426;10.300;2023-03-16T02:49:32;7.57;;;3.73;;
63110;SDS011;49201;53.426;10.300;2023-03-16T02:52:01;8.13;;;3.47;;
63110;SDS011;49201;53.426;10.300;2023-03-16T02:54:29;9.13;;;3.80;;
63110;SDS011;49201;53.426;10.300;2023-03-16T02:56:55;5.43;;;3.43;;
63110;SDS011;49201;53.426;10.300;2023-03-16T02:59:22;9.73;;;3.60;;
63110;SDS011;49201;53.426;10.300;2023-03-16T03:01:47;8.07;;;3.60;;
63110;SDS011;49201;53.426;10.300;2023-03-16T03:04:14;10.33;;;3.87;;
63110;SDS011;49201;53.426;10.300;2023-03-16T03:06:40;7.93;;;3.63;;
63110;SDS011;49201;53.426;10.300;2023-03-16T03:09:06;7.63;;;3.43;;
63110;SDS011;49201;53.426;10.300;2023-03-16T03:11:32;8.67;;;3.40;;
63110;SDS011;49201;53.426;10.300;2023-03-16T03:13:58;8.27;;;3.40;;
63110;SDS011;49201;53.426;10.300;2023-03-16T03:16:26;8.07;;;3.70;;
63110;SDS011;49201;53.426;10.300;2023-03-16T03:18:53;7.37;;;3.70;;
63110;SDS011;49201;53.426;10.300;2023-03-16T03:21:19;8.17;;;3.50;;
63110;SDS011;49201;53.426;10.300;2023-03-16T03:23:44;8.37;;;3.57;;
63110;SDS011;49201;53.426;10.300;2023-03-16T03:26:11;10.13;;;3.50;;
63110;SDS011;49201;53.426;10.300;2023-03-16T03:28:39;10.63;;;3.77;;
63110;SDS011;49201;53.426;10.300;2023-03-16T03:31:05;5.40;;;3.40;;
63110;SDS011;49201;53.426;10.300;2023-03-16T03:33:31;8.40;;;3.70;;
63110;SDS011;49201;53.426;10.300;2023-03-16T03:35:58;6.33;;;3.20;;
63110;SDS011;49201;53.426;10.300;2023-03-16T03:38:27;8.33;;;3.10;;
63110;SDS011;49201;53.426;10.300;2023-03-16T03:40:54;11.83;;;3.80;;
63110;SDS011;49201;53.426;10.300;2023-03-16T03:43:25;8.83;;;3.70;;
63110;SDS011;49201;53.426;10.300;2023-03-16T03:45:55;8.23;;;3.40;;
63110;SDS011;49201;53.426;10.300;2023-03-16T03:48:22;5.70;;;3.23;;
63110;SDS011;49201;53.426;10.300;2023-03-16T03:50:48;6.90;;;3.37;;
63110;SDS011;49201;53.426;10.300;2023-03-16T03:53:16;6.83;;;3.13;;
63110;SDS011;49201;53.426;10.300;2023-03-16T03:56:05;5.37;;;3.50;;
63110;SDS011;49201;53.426;10.300;2023-03-16T03:58:31;12.57;;;4.23;;
63110;SDS011;49201;53.426;10.300;2023-03-16T04:00:57;8.83;;;3.40;;
63110;SDS011;49201;53.426;10.300;2023-03-16T04:03:22;6.97;;;3.00;;
63110;SDS011;49201;53.426;10.300;2023-03-16T04:05:48;8.60;;;3.40;;
63110;SDS011;49201;53.426;10.300;2023-03-16T04:08:13;8.00;;;3.03;;
63110;SDS011;49201;53.426;10.300;2023-03-16T04:10:39;8.63;;;3.40;;
63110;SDS011;49201;53.426;10.300;2023-03-16T04:13:05;6.33;;;3.57;;
63110;SDS011;49201;53.426;10.300;2023-03-16T04:15:32;9.80;;;3.23;;
63110;SDS011;49201;53.426;10.300;2023-03-16T04:18:09;9.23;;;3.00;;
63110;SDS011;49201;53.426;10.300;2023-03-16T04:20:35;8.27;;;2.83;;
63110;SDS011;49201;53.426;10.300;2023-03-16T04:23:01;6.90;;;3.27;;
63110;SDS011;49201;53.426;10.300;2023-03-16T04:25:28;8.33;;;3.23;;
63110;SDS011;49201;53.426;10.300;2023-03-16T04:27:55;11.83;;;2.80;;
63110;SDS011;49201;53.426;10.300;2023-03-16T04:30:24;8.57;;;3.27;;
63110;SDS011;49201;53.426;10.300;2023-03-16T04:32:55;7.50;;;3.10;;
63110;SDS011;49201;53.426;10.300;2023-03-16T04:35:21;8.00;;;3.20;;
63110;SDS011;49201;53.426;10.300;2023-03-16T04:37:50;7.90;;;3.40;;
63110;SDS011;49201;53.426;10.300;2023-03-16T04:40:19;8.50;;;3.00;;
63110;SDS011;49201;53.426;10.300;2023-03-16T04:42:51;7.47;;;3.23;;
63110;SDS011;49201;53.426;10.300;2023-03-16T04:45:18;10.50;;;3.50;;
63110;SDS011;49201;53.426;10.300;2023-03-16T04:47:45;7.80;;;3.20;;
63110;SDS011;49201;53.426;10.300;2023-03-16T04:50:11;6.40;;;3.13;;
63110;SDS011;49201;53.426;10.300;2023-03-16T04:52:38;10.50;;;3.63;;
63110;SDS011;49201;53.426;10.300;2023-03-16T04:55:05;8.77;;;3.20;;
63110;SDS011;49201;53.426;10.300;2023-03-16T04:57:31;9.07;;;3.50;;
63110;SDS011;49201;53.426;10.300;2023-03-16T04:59:58;6.20;;;3.30;;
63110;SDS011;49201;53.426;10.300;2023-03-16T05:02:35;8.43;;;3.27;;
63110;SDS011;49201;53.426;10.300;2023-03-16T05:05:00;10.27;;;3.10;;
63110;SDS011;49201;53.426;10.300;2023-03-16T05:07:27;10.67;;;4.90;;
63110;SDS011;49201;53.426;10.300;2023-03-16T05:09:54;10.47;;;4.03;;
63110;SDS011;49201;53.426;10.300;2023-03-16T05:12:20;6.17;;;2.93;;
63110;SDS011;49201;53.426;10.300;2023-03-16T05:14:49;10.50;;;3.53;;
63110;SDS011;49201;53.426;10.300;2023-03-16T05:17:27;7.07;;;3.00;;
63110;SDS011;49201;53.426;10.300;2023-03-16T05:19:52;13.10;;;3.13;;
63110;SDS011;49201;53.426;10.300;2023-03-16T05:22:19;7.87;;;3.37;;
63110;SDS011;49201;53.426;10.300;2023-03-16T05:25:10;7.87;;;3.57;;
63110;SDS011;49201;53.426;10.300;2023-03-16T05:27:44;9.13;;;3.30;;
63110;SDS011;49201;53.426;10.300;2023-03-16T05:30:17;5.97;;;3.53;;
63110;SDS011;49201;53.426;10.300;2023-03-16T05:32:44;8.03;;;3.50;;
63110;SDS011;49201;53.426;10.300;2023-03-16T05:35:11;10.80;;;3.50;;
63110;SDS011;49201;53.426;10.300;2023-03-16T05:37:38;9.47;;;5.20;;
63110;SDS011;49201;53.426;10.300;2023-03-16T05:40:10;8.00;;;5.17;;
63110;SDS011;49201;53.426;10.300;2023-03-16T05:42:53;9.23;;;5.50;;
63110;SDS011;49201;53.426;10.300;2023-03-16T05:45:20;9.80;;;4.20;;
63110;SDS011;49201;53.426;10.300;2023-03-16T05:48:09;9.40;;;4.00;;
63110;SDS011;49201;53.426;10.300;2023-03-16T05:50:41;12.17;;;3.53;;
63110;SDS011;49201;53.426;10.300;2023-03-16T05:53:07;8.00;;;3.73;;
63110;SDS011;49201;53.426;10.300;2023-03-16T05:55:34;6.63;;;3.60;;
63110;SDS011;49201;53.426;10.300;2023-03-16T05:58:02;6.77;;;3.47;;
63110;SDS011;49201;53.426;10.300;2023-03-16T06:00:28;8.47;;;3.63;;
63110;SDS011;49201;53.426;10.300;2023-03-16T06:03:05;10.70;;;3.73;;
63110;SDS011;49201;53.426;10.300;2023-03-16T06:05:33;6.23;;;3.60;;
63110;SDS011;49201;53.426;10.300;2023-03-16T06:07:59;6.97;;;3.57;;
63110;SDS011;49201;53.426;10.300;2023-03-16T06:10:25;8.37;;;3.97;;
63110;SDS011;49201;53.426;10.300;2023-03-16T06:12:51;5.73;;;3.50;;
63110;SDS011;49201;53.426;10.300;2023-03-16T06:15:19;9.17;;;3.70;;
63110;SDS011;49201;53.426;10.300;2023-03-16T06:17:44;8.27;;;3.73;;
63110;SDS011;49201;53.426;10.300;2023-03-16T06:20:11;11.70;;;3.67;;
63110;SDS011;49201;53.426;10.300;2023-03-16T06:22:39;9.07;;;3.63;;
63110;SDS011;49201;53.426;10.300;2023-03-16T06:25:06;8.83;;;3.70;;
63110;SDS011;49201;53.426;10.300;2023-03-16T06:27:34;12.10;;;3.73;;
63110;SDS011;49201;53.426;10.300;2023-03-16T06:30:09;6.80;;;3.70;;
63110;SDS011;49201;53.426;10.300;2023-03-16T06:32:36;8.97;;;4.17;;
63110;SDS011;49201;53.426;10.300;2023-03-16T06:35:03;11.17;;;3.60;;
63110;SDS011;49201;53.426;10.300;2023-03-16T06:37:30;6.30;;;3.23;;
63110;SDS011;49201;53.426;10.300;2023-03-16T06:39:59;12.13;;;5.07;;
63110;SDS011;49201;53.426;10.300;2023-03-16T06:42:26;13.57;;;5.13;;
63110;SDS011;49201;53.426;10.300;2023-03-16T06:44:52;6.37;;;3.67;;
63110;SDS011;49201;53.426;10.300;2023-03-16T06:47:18;8.40;;;3.40;;
63110;SDS011;49201;53.426;10.300;2023-03-16T06:49:44;6.90;;;3.60;;
63110;SDS011;49201;53.426;10.300;2023-03-16T06:52:18;6.53;;;3.40;;
63110;SDS011;49201;53.426;10.300;2023-03-16T06:54:43;8.70;;;3.40;;
63110;SDS011;49201;53.426;10.300;2023-03-16T06:57:10;7.67;;;3.40;;
63110;SDS011;49201;53.426;10.300;2023-03-16T06:59:35;7.77;;;3.17;;
63110;SDS011;49201;53.426;10.300;2023-03-16T07:02:01;6.50;;;3.00;;
63110;SDS011;49201;53.426;10.300;2023-03-16T07:04:26;6.17;;;3.00;;
63110;SDS011;49201;53.426;10.300;2023-03-16T07:06:52;6.13;;;3.10;;
63110;SDS011;49201;53.426;10.300;2023-03-16T07:09:17;5.77;;;3.57;;
63110;SDS011;49201;53.426;10.300;2023-03-16T07:11:43;9.80;;;3.50;;
63110;SDS011;49201;53.426;10.300;2023-03-16T07:14:09;9.50;;;3.27;;
63110;SDS011;49201;53.426;10.300;2023-03-16T07:16:35;5.53;;;3.00;;
63110;SDS011;49201;53.426;10.300;2023-03-16T07:19:03;11.60;;;3.87;;
63110;SDS011;49201;53.426;10.300;2023-03-16T07:21:29;6.73;;;3.40;;
63110;SDS011;49201;53.426;10.300;2023-03-16T07:24:03;9.93;;;4.50;;
63110;SDS011;49201;53.426;10.300;2023-03-16T07:26:35;8.73;;;3.80;;
63110;SDS011;49201;53.426;10.300;2023-03-16T07:29:00;7.60;;;3.60;;
63110;SDS011;49201;53.426;10.300;2023-03-16T07:31:29;5.90;;;3.50;;
63110;SDS011;49201;53.426;10.300;2023-03-16T07:33:57;8.03;;;3.80;;
63110;SDS011;49201;53.426;10.300;2023-03-16T07:36:34;8.63;;;3.33;;
63110;SDS011;49201;53.426;10.300;2023-03-16T07:39:00;8.93;;;3.60;;
63110;SDS011;49201;53.426;10.300;2023-03-16T07:41:26;8.37;;;3.40;;
63110;SDS011;49201;53.426;10.300;2023-03-16T07:43:51;6.73;;;3.57;;
63110;SDS011;49201;53.426;10.300;2023-03-16T07:46:22;8.90;;;3.80;;
63110;SDS011;49201;53.426;10.300;2023-03-16T07:48:47;6.87;;;3.50;;
63110;SDS011;49201;53.426;10.300;2023-03-16T07:51:13;8.00;;;3.70;;
63110;SDS011;49201;53.426;10.300;2023-03-16T07:53:39;6.73;;;3.43;;
63110;SDS011;49201;53.426;10.300;2023-03-16T07:56:16;6.23;;;3.07;;
63110;SDS011;49201;53.426;10.300;2023-03-16T07:58:44;8.20;;;3.20;;
63110;SDS011;49201;53.426;10.300;2023-03-16T08:01:09;8.70;;;4.07;;
63110;SDS011;49201;53.426;10.300;2023-03-16T08:03:36;12.90;;;3.57;;
63110;SDS011;49201;53.426;10.300;2023-03-16T08:06:01;8.07;;;3.60;;
63110;SDS011;49201;53.426;10.300;2023-03-16T08:08:28;8.77;;;3.27;;
63110;SDS011;49201;53.426;10.300;2023-03-16T08:10:54;8.83;;;4.00;;
63110;SDS011;49201;53.426;10.300;2023-03-16T08:13:22;11.30;;;3.37;;
63110;SDS011;49201;53.426;10.300;2023-03-16T08:15:48;9.73;;;3.47;;
63110;SDS011;49201;53.426;10.300;2023-03-16T08:18:28;9.37;;;3.20;;
63110;SDS011;49201;53.426;10.300;2023-03-16T08:20:54;9.90;;;3.23;;
63110;SDS011;49201;53.426;10.300;2023-03-16T08:23:22;7.10;;;3.00;;
63110;SDS011;49201;53.426;10.300;2023-03-16T08:25:52;10.00;;;4.47;;
63110;SDS011;49201;53.426;10.300;2023-03-16T08:28:19;17.57;;;9.83;;
63110;SDS011;49201;53.426;10.300;2023-03-16T08:30:49;8.87;;;4.30;;
63110;SDS011;49201;53.426;10.300;2023-03-16T08:33:39;10.07;;;3.17;;
63110;SDS011;49201;53.426;10.300;2023-03-16T08:36:08;7.87;;;3.00;;
63110;SDS011;49201;53.426;10.300;2023-03-16T08:38:36;5.53;;;2.80;;
63110;SDS011;49201;53.426;10.300;2023-03-16T08:41:06;4.83;;;2.80;;
63110;SDS011;49201;53.426;10.300;2023-03-16T08:43:32;9.03;;;2.70;;
63110;SDS011;49201;53.426;10.300;2023-03-16T08:45:58;10.43;;;2.80;;
63110;SDS011;49201;53.426;10.300;2023-03-16T08:48:33;5.03;;;2.20;;
63110;SDS011;49201;53.426;10.300;2023-03-16T08:51:02;8.27;;;2.83;;
63110;SDS011;49201;53.426;10.300;2023-03-16T08:53:28;4.70;;;2.33;;
63110;SDS011;49201;53.426;10.300;2023-03-16T08:56:08;5.67;;;2.50;;
63110;SDS011;49201;53.426;10.300;2023-03-16T08:58:36;5.70;;;2.13;;
63110;SDS011;49201;53.426;10.300;2023-03-16T09:01:03;6.70;;;2.37;;
63110;SDS011;49201;53.426;10.300;2023-03-16T09:03:33;4.73;;;2.00;;
63110;SDS011;49201;53.426;10.300;2023-03-16T09:06:03;5.73;;;2.17;;
63110;SDS011;49201;53.426;10.300;2023-03-16T09:08:31;3.07;;;2.03;;
63110;SDS011;49201;53.426;10.300;2023-03-16T09:10:58;4.60;;;2.10;;
63110;SDS011;49201;53.426;10.300;2023-03-16T09:13:25;6.20;;;2.23;;
63110;SDS011;49201;53.426;10.300;2023-03-16T09:15:50;3.47;;;1.80;;
63110;SDS011;49201;53.426;10.300;2023-03-16T09:18:16;5.70;;;1.83;;
63110;SDS011;49201;53.426;10.300;2023-03-16T09:20:43;5.30;;;1.90;;
63110;SDS011;49201;53.426;10.300;2023-03-16T09:23:09;6.03;;;2.03;;
63110;SDS011;49201;53.426;10.300;2023-03-16T09:25:35;3.80;;;1.87;;
63110;SDS011;49201;53.426;10.300;2023-03-16T09:28:01;4.37;;;2.20;;
63110;SDS011;49201;53.426;10.300;2023-03-16T09:30:26;7.47;;;2.13;;
63110;SDS011;49201;53.426;10.300;2023-03-16T09:32:52;5.78;;;1.98;;
63110;SDS011;49201;53.426;10.300;2023-03-16T09:35:17;5.47;;;1.50;;
63110;SDS011;49201;53.426;10.300;2023-03-16T09:37:43;4.27;;;1.83;;
63110;SDS011;49201;53.426;10.300;2023-03-16T09:40:22;4.60;;;1.80;;
63110;SDS011;49201;53.426;10.300;2023-03-16T09:45:36;6.10;;;1.53;;
63110;SDS011;49201;53.426;10.300;2023-03-16T09:48:07;5.20;;;2.10;;
63110;SDS011;49201;53.426;10.300;2023-03-16T09:50:35;4.60;;;1.87;;
63110;SDS011;49201;53.426;10.300;2023-03-16T09:56:03;4.00;;;1.70;;
63110;SDS011;49201;53.426;10.300;2023-03-16T09:58:39;5.10;;;1.77;;
63110;SDS011;49201;53.426;10.300;2023-03-16T10:01:06;3.17;;;1.40;;
63110;SDS011;49201;53.426;10.300;2023-03-16T10:03:57;4.40;;;1.83;;
63110;SDS011;49201;53.426;10.300;2023-03-16T10:06:31;5.47;;;2.03;;
63110;SDS011;49201;53.426;10.300;2023-03-16T10:09:04;4.50;;;1.80;;
63110;SDS011;49201;53.426;10.300;2023-03-16T10:11:41;3.67;;;1.98;;
63110;SDS011;49201;53.426;10.300;2023-03-16T10:19:26;4.10;;;1.73;;
63110;SDS011;49201;53.426;10.300;2023-03-16T10:21:57;2.67;;;1.50;;
63110;SDS011;49201;53.426;10.300;2023-03-16T10:24:43;2.33;;;1.53;;
63110;SDS011;49201;53.426;10.300;2023-03-16T10:27:27;3.77;;;1.60;;
63110;SDS011;49201;53.426;10.300;2023-03-16T10:30:09;3.93;;;1.57;;
63110;SDS011;49201;53.426;10.300;2023-03-16T10:32:38;4.57;;;1.70;;
63110;SDS011;49201;53.426;10.300;2023-03-16T10:37:35;4.03;;;1.77;;
63110;SDS011;49201;53.426;10.300;2023-03-16T10:40:07;5.33;;;1.57;;
63110;SDS011;49201;53.426;10.300;2023-03-16T10:42:34;3.93;;;1.43;;
63110;SDS011;49201;53.426;10.300;2023-03-16T10:45:01;3.57;;;1.10;;
63110;SDS011;49201;53.426;10.300;2023-03-16T10:47:28;1.87;;;1.10;;
63110;SDS011;49201;53.426;10.300;2023-03-16T10:49:56;3.80;;;1.20;;
63110;SDS011;49201;53.426;10.300;2023-03-16T10:52:32;3.33;;;1.20;;
63110;SDS011;49201;53.426;10.300;2023-03-16T10:55:06;2.40;;;1.00;;
63110;SDS011;49201;53.426;10.300;2023-03-16T10:57:35;2.63;;;1.10;;
63110;SDS011;49201;53.426;10.300;2023-03-16T11:02:44;0.73;;;0.73;;
63110;SDS011;49201;53.426;10.300;2023-03-16T11:07:50;2.20;;;1.00;;
63110;SDS011;49201;53.426;10.300;2023-03-16T11:10:24;2.67;;;1.33;;
63110;SDS011;49201;53.426;10.300;2023-03-16T11:12:52;2.03;;;1.10;;
63110;SDS011;49201;53.426;10.300;2023-03-16T11:15:19;3.20;;;0.90;;
63110;SDS011;49201;53.426;10.300;2023-03-16T11:17:46;1.80;;;0.80;;
63110;SDS011;49201;53.426;10.300;2023-03-16T11:20:16;2.53;;;0.90;;
63110;SDS011;49201;53.426;10.300;2023-03-16T11:22:52;1.77;;;1.03;;
63110;SDS011;49201;53.426;10.300;2023-03-16T11:33:45;1.30;;;0.70;;
63110;SDS011;49201;53.426;10.300;2023-03-16T11:41:18;1.57;;;0.93;;
63110;SDS011;49201;53.426;10.300;2023-03-16T11:44:07;1.40;;;0.80;;
63110;SDS011;49201;53.426;10.300;2023-03-16T11:52:58;1.47;;;0.90;;
63110;SDS011;49201;53.426;10.300;2023-03-16T12:01:21;2.27;;;1.10;;
63110;SDS011;49201;53.426;10.300;2023-03-16T12:14:46;1.20;;;0.80;;
63110;SDS011;49201;53.426;10.300;2023-03-16T12:17:31;0.87;;;0.80;;
63110;SDS011;49201;53.426;10.300;2023-03-16T12:20:06;2.20;;;1.03;;
63110;SDS011;49201;53.426;10.300;2023-03-16T12:22:43;2.23;;;1.10;;
63110;SDS011;49201;53.426;10.300;2023-03-16T12:25:17;3.87;;;1.33;;
63110;SDS011;49201;53.426;10.300;2023-03-16T12:27:46;1.40;;;1.10;;
63110;SDS011;49201;53.426;10.300;2023-03-16T12:33:06;2.20;;;0.97;;
63110;SDS011;49201;53.426;10.300;2023-03-16T12:39:01;2.00;;;0.87;;
63110;SDS011;49201;53.426;10.300;2023-03-16T12:44:18;1.97;;;1.03;;
63110;SDS011;49201;53.426;10.300;2023-03-16T12:46:53;3.17;;;1.20;;
63110;SDS011;49201;53.426;10.300;2023-03-16T12:49:39;4.03;;;1.10;;
63110;SDS011;49201;53.426;10.300;2023-03-16T12:52:06;2.63;;;1.20;;
63110;SDS011;49201;53.426;10.300;2023-03-16T12:54:34;1.77;;;0.90;;
63110;SDS011;49201;53.426;10.300;2023-03-16T12:57:06;5.30;;;2.80;;
63110;SDS011;49201;53.426;10.300;2023-03-16T12:59:42;2.67;;;0.97;;
63110;SDS011;49201;53.426;10.300;2023-03-16T13:02:28;2.87;;;0.93;;
63110;SDS011;49201;53.426;10.300;2023-03-16T13:04:57;10.03;;;1.93;;
63110;SDS011;49201;53.426;10.300;2023-03-16T13:07:31;2.40;;;1.20;;
63110;SDS011;49201;53.426;10.300;2023-03-16T13:10:08;3.20;;;1.30;;
63110;SDS011;49201;53.426;10.300;2023-03-16T13:12:38;2.53;;;0.80;;
63110;SDS011;49201;53.426;10.300;2023-03-16T13:17:43;1.43;;;0.77;;
63110;SDS011;49201;53.426;10.300;2023-03-16T13:22:44;2.00;;;0.73;;
63110;SDS011;49201;53.426;10.300;2023-03-16T13:27:55;1.80;;;0.83;;
63110;SDS011;49201;53.426;10.300;2023-03-16T13:33:00;1.70;;;0.60;;
63110;SDS011;49201;53.426;10.300;2023-03-16T13:35:31;2.87;;;0.77;;
63110;SDS011;49201;53.426;10.300;2023-03-16T13:38:03;2.80;;;0.87;;
63110;SDS011;49201;53.426;10.300;2023-03-16T13:40:29;1.80;;;0.67;;
63110;SDS011;49201;53.426;10.300;2023-03-16T13:42:55;2.47;;;0.97;;
63110;SDS011;49201;53.426;10.300;2023-03-16T13:45:26;1.40;;;0.60;;
63110;SDS011;49201;53.426;10.300;2023-03-16T13:47:56;2.60;;;1.20;;
63110;SDS011;49201;53.426;10.300;2023-03-16T13:50:22;4.07;;;1.70;;
63110;SDS011;49201;53.426;10.300;2023-03-16T13:52:51;1.47;;;0.80;;
63110;SDS011;49201;53.426;10.300;2023-03-16T13:55:22;2.97;;;1.63;;
63110;SDS011;49201;53.426;10.300;2023-03-16T13:57:54;2.43;;;0.80;;
63110;SDS011;49201;53.426;10.300;2023-03-16T14:00:21;1.50;;;0.50;;
63110;SDS011;49201;53.426;10.300;2023-03-16T14:02:56;2.30;;;0.93;;
63110;SDS011;49201;53.426;10.300;2023-03-16T14:05:31;2.00;;;0.80;;
63110;SDS011;49201;53.426;10.300;2023-03-16T14:07:59;4.43;;;1.20;;
63110;SDS011;49201;53.426;10.300;2023-03-16T14:10:33;3.07;;;1.23;;
63110;SDS011;49201;53.426;10.300;2023-03-16T14:13:07;1.13;;;0.80;;
63110;SDS011;49201;53.426;10.300;2023-03-16T14:15:52;1.87;;;0.83;;
63110;SDS011;49201;53.426;10.300;2023-03-16T14:18:21;1.33;;;0.90;;
63110;SDS011;49201;53.426;10.300;2023-03-16T14:20:52;2.73;;;0.60;;
63110;SDS011;49201;53.426;10.300;2023-03-16T14:23:25;1.10;;;0.70;;
63110;SDS011;49201;53.426;10.300;2023-03-16T14:25:57;2.20;;;0.80;;
63110;SDS011;49201;53.426;10.300;2023-03-16T14:28:27;1.50;;;0.60;;
63110;SDS011;49201;53.426;10.300;2023-03-16T14:31:03;2.23;;;0.73;;
63110;SDS011;49201;53.426;10.300;2023-03-16T14:33:32;1.47;;;0.67;;
63110;SDS011;49201;53.426;10.300;2023-03-16T14:36:06;1.63;;;0.67;;
63110;SDS011;49201;53.426;10.300;2023-03-16T14:38:35;1.23;;;0.80;;
63110;SDS011;49201;53.426;10.300;2023-03-16T14:41:05;3.00;;;0.90;;
63110;SDS011;49201;53.426;10.300;2023-03-16T14:43:44;3.10;;;0.80;;
63110;SDS011;49201;53.426;10.300;2023-03-16T14:46:12;1.30;;;0.70;;
63110;SDS011;49201;53.426;10.300;2023-03-16T14:48:43;1.43;;;0.73;;
63110;SDS011;49201;53.426;10.300;2023-03-16T14:51:12;3.33;;;0.80;;
63110;SDS011;49201;53.426;10.300;2023-03-16T14:53:38;2.00;;;0.67;;
63110;SDS011;49201;53.426;10.300;2023-03-16T14:56:11;1.93;;;0.80;;
63110;SDS011;49201;53.426;10.300;2023-03-16T14:58:40;2.60;;;0.80;;
63110;SDS011;49201;53.426;10.300;2023-03-16T15:01:08;1.57;;;0.90;;
63110;SDS011;49201;53.426;10.300;2023-03-16T15:03:40;2.87;;;0.90;;
63110;SDS011;49201;53.426;10.300;2023-03-16T15:06:07;4.17;;;0.90;;
63110;SDS011;49201;53.426;10.300;2023-03-16T15:08:33;2.67;;;0.87;;
63110;SDS011;49201;53.426;10.300;2023-03-16T15:11:07;2.77;;;0.90;;
63110;SDS011;49201;53.426;10.300;2023-03-16T15:13:33;3.03;;;0.90;;
63110;SDS011;49201;53.426;10.300;2023-03-16T15:16:09;2.33;;;0.73;;
63110;SDS011;49201;53.426;10.300;2023-03-16T15:18:36;2.73;;;0.93;;
63110;SDS011;49201;53.426;10.300;2023-03-16T15:21:03;3.93;;;1.07;;
63110;SDS011;49201;53.426;10.300;2023-03-16T15:23:37;3.27;;;0.90;;
63110;SDS011;49201;53.426;10.300;2023-03-16T15:26:02;2.07;;;0.70;;
63110;SDS011;49201;53.426;10.300;2023-03-16T15:28:31;1.90;;;0.80;;
63110;SDS011;49201;53.426;10.300;2023-03-16T15:30:58;4.43;;;0.93;;
63110;SDS011;49201;53.426;10.300;2023-03-16T15:33:25;2.90;;;0.90;;
63110;SDS011;49201;53.426;10.300;2023-03-16T15:35:52;2.27;;;1.00;;
63110;SDS011;49201;53.426;10.300;2023-03-16T15:40:52;2.43;;;0.90;;
63110;SDS011;49201;53.426;10.300;2023-03-16T15:43:19;2.13;;;0.70;;
63110;SDS011;49201;53.426;10.300;2023-03-16T15:45:47;2.30;;;0.70;;
63110;SDS011;49201;53.426;10.300;2023-03-16T15:48:13;1.90;;;0.60;;
63110;SDS011;49201;53.426;10.300;2023-03-16T15:50:39;1.93;;;0.90;;
63110;SDS011;49201;53.426;10.300;2023-03-16T15:53:23;2.07;;;0.80;;
63110;SDS011;49201;53.426;10.300;2023-03-16T15:55:52;2.80;;;0.80;;
63110;SDS011;49201;53.426;10.300;2023-03-16T15:58:23;2.27;;;0.63;;
63110;SDS011;49201;53.426;10.300;2023-03-16T16:00:54;3.03;;;0.80;;
63110;SDS011;49201;53.426;10.300;2023-03-16T16:03:21;3.40;;;0.83;;
63110;SDS011;49201;53.426;10.300;2023-03-16T16:05:48;3.03;;;0.80;;
63110;SDS011;49201;53.426;10.300;2023-03-16T16:08:14;1.93;;;0.93;;
63110;SDS011;49201;53.426;10.300;2023-03-16T16:10:40;2.47;;;0.87;;
63110;SDS011;49201;53.426;10.300;2023-03-16T16:13:12;1.43;;;0.83;;